Time;durP1;ratioP1;P1;durP2;ratioP2;P2;SDS_P1;SDS_P2;PMS_P1;PMS_P2;Temp;Humidity;BMP_temperature;BMP_pressure;BME280_temperature;BME280_humidity;BME280_pressure;Samples;Min_cycle;Max_cycle;Signal;HPM_P1;HPM_P2
2021/04/06 00:01:44;;;;;;;14.83;9.28;;;;;;;4.01;61.29;98418.07;1767788;81;21132;-64
2021/04/06 00:04:15;;;;;;;13.28;9.00;;;;;;;4.02;61.29;98421.55;1773456;79;21141;-64
2021/04/06 00:06:48;;;;;;;14.93;9.05;;;;;;;4.05;61.41;98422.38;1757171;80;22465;-63
2021/04/06 00:09:20;;;;;;;9.43;7.40;;;;;;;4.04;61.36;98415.45;1780022;80;21617;-64
2021/04/06 00:11:48;;;;;;;13.28;8.98;;;;;;;4.07;61.41;98420.30;1753775;80;21113;-64
2021/04/06 00:14:16;;;;;;;10.40;8.28;;;;;;;4.07;61.61;98422.97;1754387;80;21066;-65
2021/04/06 00:16:46;;;;;;;14.70;10.28;;;;;;;4.08;61.65;98421.89;1700866;83;21618;-63
2021/04/06 00:19:17;;;;;;;9.85;7.33;;;;;;;4.07;61.70;98421.12;1721516;81;21220;-64
2021/04/06 00:21:47;;;;;;;15.48;11.45;;;;;;;4.07;61.90;98419.78;1779758;80;21015;-63
2021/04/06 00:24:15;;;;;;;10.70;8.13;;;;;;;4.10;61.85;98420.63;1736278;81;21541;-63
2021/04/06 00:26:53;;;;;;;12.90;9.08;;;;;;;4.13;61.74;98424.13;1754614;80;21181;-62
2021/04/06 00:29:25;;;;;;;12.18;7.55;;;;;;;4.14;61.83;98425.75;1750073;80;21165;-62
2021/04/06 00:31:55;;;;;;;10.32;7.97;;;;;;;4.17;61.81;98419.16;1762758;80;21884;-64
2021/04/06 00:34:23;;;;;;;13.85;8.73;;;;;;;4.16;61.91;98412.22;1726704;82;21499;-62
2021/04/06 00:36:56;;;;;;;9.55;6.95;;;;;;;4.11;62.26;98412.94;1750340;82;21153;-63
2021/04/06 00:39:36;;;;;;;13.95;8.95;;;;;;;4.08;62.42;98409.92;1749320;82;20982;-63
2021/04/06 00:42:13;;;;;;;15.43;9.25;;;;;;;4.04;62.68;98412.27;1731817;81;21612;-65
2021/04/06 00:44:50;;;;;;;12.60;8.65;;;;;;;3.99;62.86;98405.52;1749131;82;22277;-64
2021/04/06 00:47:26;;;;;;;16.80;9.68;;;;;;;3.98;62.97;98405.23;1718213;82;21207;-63
2021/04/06 00:49:56;;;;;;;12.43;9.30;;;;;;;3.96;63.05;98403.34;1775447;80;21595;-62
2021/04/06 00:52:27;;;;;;;16.52;9.58;;;;;;;3.96;63.01;98395.38;1707788;82;21164;-63
2021/04/06 00:54:58;;;;;;;16.95;11.63;;;;;;;3.95;63.19;98399.06;1672162;83;21673;-65
2021/04/06 00:57:29;;;;;;;36.10;17.40;;;;;;;3.93;63.25;98394.53;1719943;83;21449;-63
2021/04/06 01:00:25;;;;;;;52.25;23.07;;;;;;;3.91;63.46;98391.28;1702305;84;21175;-62
2021/04/06 01:03:06;;;;;;;67.50;25.92;;;;;;;3.87;63.53;98389.64;1744174;80;21534;-63
2021/04/06 01:05:56;;;;;;;68.95;31.25;;;;;;;3.85;63.80;98391.72;1755466;80;21689;-65
2021/04/06 01:08:28;;;;;;;73.37;31.12;;;;;;;3.81;64.08;98387.11;1759578;80;21138;-63
2021/04/06 01:11:04;;;;;;;54.13;27.67;;;;;;;3.81;64.30;98389.25;1889236;76;22621;-64
2021/04/06 01:13:36;;;;;;;42.85;21.57;;;;;;;3.79;64.13;98398.52;1860195;77;21069;-68
2021/04/06 01:16:05;;;;;;;45.38;22.67;;;;;;;3.81;64.24;98401.22;1865312;75;22264;-65
2021/04/06 01:18:34;;;;;;;41.65;21.12;;;;;;;3.83;64.12;98388.50;1795742;78;21147;-67
2021/04/06 01:21:09;;;;;;;30.65;16.40;;;;;;;3.85;64.07;98388.24;1767960;78;21035;-65
2021/04/06 01:23:38;;;;;;;26.07;14.60;;;;;;;3.88;64.09;98394.44;1827982;77;21149;-66
2021/04/06 01:26:12;;;;;;;18.45;11.30;;;;;;;3.91;63.99;98392.62;1826579;78;21113;-67
2021/04/06 01:28:41;;;;;;;14.93;11.43;;;;;;;3.95;63.85;98394.56;1790059;78;21148;-67
2021/04/06 01:31:09;;;;;;;22.48;11.93;;;;;;;4.01;63.74;98401.30;1773591;80;21016;-65
2021/04/06 01:33:37;;;;;;;13.70;8.40;;;;;;;4.05;63.60;98398.44;1757073;81;21660;-67
2021/04/06 01:36:08;;;;;;;14.33;7.37;;;;;;;4.08;63.49;98389.97;1792146;78;21547;-65
2021/04/06 01:38:38;;;;;;;10.25;8.73;;;;;;;4.10;63.41;98390.55;1818708;78;21594;-65
2021/04/06 01:41:06;;;;;;;11.70;8.28;;;;;;;4.13;63.36;98392.20;1751833;81;21374;-63
2021/04/06 01:43:38;;;;;;;11.38;8.48;;;;;;;4.14;63.33;98390.35;1772276;80;21118;-63
2021/04/06 01:46:15;;;;;;;14.20;7.70;;;;;;;4.16;63.30;98395.73;1796163;78;21053;-65
2021/04/06 01:48:40;;;;;;;15.20;9.60;;;;;;;4.19;63.34;98387.78;1821489;78;21196;-65
2021/04/06 01:51:08;;;;;;;10.35;7.08;;;;;;;4.22;63.26;98384.11;1791241;78;21676;-63
2021/04/06 01:53:37;;;;;;;10.08;8.43;;;;;;;4.24;63.23;98386.02;1779438;80;22118;-64
2021/04/06 01:56:12;;;;;;;10.68;8.88;;;;;;;4.26;63.16;98390.59;1750982;80;21217;-62
2021/04/06 01:58:41;;;;;;;9.25;7.53;;;;;;;4.28;63.11;98393.80;1784529;80;20988;-63
2021/04/06 02:03:55;;;;;;;9.80;7.80;;;;;;;4.30;62.99;98397.03;1787541;80;21117;-62
2021/04/06 02:06:18;;;;;;;11.70;8.63;;;;;;;4.33;62.94;98401.05;1794281;79;21149;-62
2021/04/06 02:08:50;;;;;;;12.33;9.38;;;;;;;4.31;62.99;98393.34;1756184;81;21599;-62
2021/04/06 02:11:30;;;;;;;10.18;7.75;;;;;;;4.30;63.00;98393.05;1759878;81;21663;-62
2021/04/06 02:14:14;;;;;;;11.93;7.72;;;;;;;4.32;63.03;98395.44;1781331;80;21038;-61
2021/04/06 02:17:06;;;;;;;12.80;8.43;;;;;;;4.31;63.08;98392.52;1762475;81;21149;-61
2021/04/06 02:19:40;;;;;;;11.57;8.83;;;;;;;4.29;63.11;98387.44;1762487;81;21215;-62
2021/04/06 02:22:12;;;;;;;;;;;;;;;4.29;63.13;98393.27;1764776;81;21181;-63
2021/04/06 02:24:47;;;;;;;13.58;8.50;;;;;;;4.28;63.18;98393.80;1760309;81;20544;-63
2021/04/06 02:27:29;;;;;;;10.03;7.90;;;;;;;4.25;63.28;98381.50;1767638;80;21544;-63
2021/04/06 02:29:59;;;;;;;13.93;9.15;;;;;;;4.26;63.30;98389.25;1761750;81;21177;-62
2021/04/06 02:32:30;;;;;;;9.35;8.40;;;;;;;4.25;63.32;98380.98;1760970;81;21393;-63
2021/04/06 02:35:03;;;;;;;15.00;9.33;;;;;;;4.27;63.32;98379.39;1761551;81;21134;-64
2021/04/06 02:37:34;;;;;;;13.60;8.65;;;;;;;4.27;63.34;98382.86;1747935;82;21611;-63
2021/04/06 02:40:14;;;;;;;15.23;11.38;;;;;;;4.27;63.36;98380.20;1759488;81;21017;-63
2021/04/06 02:42:47;;;;;;;11.97;9.18;;;;;;;4.25;63.43;98376.99;1759200;81;21179;-63
2021/04/06 02:45:21;;;;;;;17.77;10.72;;;;;;;4.26;63.49;98373.81;1755643;80;21369;-62
2021/04/06 02:48:12;;;;;;;;;;;;;;;4.25;63.44;98374.33;1770169;80;21609;-61
2021/04/06 02:50:36;;;;;;;12.63;10.32;;;;;;;4.26;63.45;98366.64;1776612;80;20259;-62
2021/04/06 02:53:07;;;;;;;13.70;10.43;;;;;;;4.27;63.41;98373.55;1761621;81;21226;-62
2021/04/06 02:55:36;;;;;;;15.60;11.00;;;;;;;4.27;63.54;98379.39;1761685;81;21158;-63
2021/04/06 02:58:15;;;;;;;14.10;10.90;;;;;;;4.25;63.60;98374.33;1761668;81;22419;-61
2021/04/06 03:00:43;;;;;;;11.80;8.45;;;;;;;4.22;63.65;98373.47;1759372;80;21120;-62
2021/04/06 03:03:26;;;;;;;15.83;10.45;;;;;;;4.24;63.58;98371.90;1745929;81;21114;-62
2021/04/06 03:06:01;;;;;;;10.35;7.65;;;;;;;4.25;63.56;98382.31;1731853;81;20945;-61
2021/04/06 03:08:32;;;;;;;12.85;8.75;;;;;;;4.27;63.51;98372.73;1749449;81;21144;-63
2021/04/06 03:11:01;;;;;;;11.15;9.08;;;;;;;4.28;63.50;98367.70;1760122;81;21389;-63
2021/04/06 03:13:29;;;;;;;11.30;8.30;;;;;;;4.26;63.56;98367.97;1760490;81;21019;-64
2021/04/06 03:15:57;;;;;;;11.25;8.35;;;;;;;4.25;63.56;98374.85;1755416;81;21135;-62
2021/04/06 03:18:34;;;;;;;11.97;9.50;;;;;;;4.25;63.56;98369.53;1758387;81;21091;-62
2021/04/06 03:21:08;;;;;;;14.30;10.55;;;;;;;4.26;63.54;98375.14;1757974;81;21161;-63
2021/04/06 03:23:37;;;;;;;12.05;8.75;;;;;;;4.25;63.54;98369.01;1766194;80;22320;-62
2021/04/06 03:26:07;;;;;;;11.35;9.38;;;;;;;4.26;63.56;98368.48;1761115;80;21650;-64
2021/04/06 03:28:38;;;;;;;12.53;9.30;;;;;;;4.25;63.58;98371.67;1759084;81;21531;-66
2021/04/06 03:31:14;;;;;;;14.47;9.03;;;;;;;4.25;63.58;98380.17;1757974;81;21212;-64
2021/04/06 03:33:45;;;;;;;9.73;7.35;;;;;;;4.24;63.61;98383.88;1728650;81;22216;-65
2021/04/06 03:36:27;;;;;;;12.15;7.87;;;;;;;4.23;63.70;98392.37;1762333;81;20974;-65
2021/04/06 03:38:59;;;;;;;20.55;12.07;;;;;;;4.24;63.63;98399.32;1759566;80;21615;-67
2021/04/06 03:41:29;;;;;;;13.35;9.95;;;;;;;4.24;63.64;98394.52;1754704;81;20999;-65
2021/04/06 03:44:10;;;;;;;14.65;9.93;;;;;;;4.24;63.70;98395.85;1758729;80;21159;-67
2021/04/06 03:46:40;;;;;;;11.50;9.33;;;;;;;4.24;63.69;98398.52;1763082;81;21183;-64
2021/04/06 03:49:18;;;;;;;12.55;9.15;;;;;;;4.23;63.69;98401.69;1766015;79;21262;-67
2021/04/06 03:51:52;;;;;;;12.40;9.80;;;;;;;4.25;63.64;98401.46;1746825;81;21172;-67
2021/04/06 03:54:45;;;;;;;12.93;10.45;;;;;;;4.24;63.66;98404.64;1775567;80;21185;-66
2021/04/06 03:57:46;;;;;;;12.23;8.83;;;;;;;4.26;63.66;98399.09;1731909;82;21048;-65
2021/04/06 04:00:17;;;;;;;10.23;7.72;;;;;;;4.26;63.67;98398.56;1731984;82;21115;-66
2021/04/06 04:02:45;;;;;;;15.70;9.73;;;;;;;4.26;63.68;98406.55;1767154;80;21214;-67
2021/04/06 04:05:15;;;;;;;21.42;11.38;;;;;;;4.22;63.83;98410.72;1780567;79;21623;-65
2021/04/06 04:07:42;;;;;;;15.32;9.95;;;;;;;4.22;63.78;98405.39;1754604;80;21154;-65
2021/04/06 04:10:11;;;;;;;15.40;10.20;;;;;;;4.23;63.84;98402.21;1731521;82;21277;-65
2021/04/06 04:12:40;;;;;;;14.23;9.90;;;;;;;4.25;63.87;98410.25;1758112;81;21151;-64
2021/04/06 04:15:09;;;;;;;12.90;10.65;;;;;;;4.28;63.80;98403.63;1758052;81;21205;-66
2021/04/06 04:17:37;;;;;;;13.88;9.45;;;;;;;4.29;63.76;98397.27;1744380;81;21632;-64
2021/04/06 04:20:13;;;;;;;18.60;11.00;;;;;;;4.32;63.77;98401.58;1757144;81;21122;-64
2021/04/06 04:22:40;;;;;;;13.40;8.53;;;;;;;4.33;63.73;98399.73;1752109;81;21038;-69
2021/04/06 04:25:09;;;;;;;13.88;10.53;;;;;;;4.31;63.85;98396.00;1751045;81;21678;-65
2021/04/06 04:27:39;;;;;;;13.55;9.30;;;;;;;4.33;63.70;98388.56;1754346;81;22299;-67
2021/04/06 04:30:10;;;;;;;15.85;10.35;;;;;;;4.34;63.78;98389.37;1730588;82;21189;-65
2021/04/06 04:32:40;;;;;;;16.32;11.03;;;;;;;4.37;63.71;98389.69;1757612;81;21025;-66
2021/04/06 04:35:08;;;;;;;15.18;9.85;;;;;;;4.43;63.56;98388.44;1757498;81;21152;-64
2021/04/06 04:37:36;;;;;;;12.75;9.70;;;;;;;4.48;63.48;98396.50;1733699;81;21160;-65
2021/04/06 04:40:07;;;;;;;10.63;7.95;;;;;;;4.51;63.32;98394.16;1743721;82;21219;-65
2021/04/06 04:42:35;;;;;;;12.03;10.48;;;;;;;4.55;63.19;98391.84;1727911;81;21000;-65
2021/04/06 04:45:11;;;;;;;13.80;10.18;;;;;;;4.57;63.17;98389.20;1741647;82;21141;-65
2021/04/06 04:47:38;;;;;;;17.25;11.12;;;;;;;4.60;63.15;98385.27;1734752;82;21583;-65
2021/04/06 04:50:09;;;;;;;17.70;10.90;;;;;;;4.62;63.07;98387.14;1734818;82;21598;-66
2021/04/06 04:52:36;;;;;;;13.68;10.80;;;;;;;4.59;63.10;98387.64;1734666;82;21374;-66
2021/04/06 04:55:07;;;;;;;20.48;11.40;;;;;;;4.59;63.10;98390.30;1741111;81;21133;-66
2021/04/06 04:57:36;;;;;;;20.97;13.18;;;;;;;4.62;63.05;98387.14;1751601;81;21156;-66
2021/04/06 05:00:06;;;;;;;21.00;12.80;;;;;;;4.62;63.12;98389.80;1754504;81;20996;-65
2021/04/06 05:02:34;;;;;;;17.10;10.63;;;;;;;4.63;63.08;98386.91;1753732;81;21173;-65
2021/04/06 05:05:04;;;;;;;15.90;11.00;;;;;;;4.68;62.97;98399.49;1751756;81;21215;-65
2021/04/06 05:07:31;;;;;;;13.20;9.90;;;;;;;4.74;62.80;98403.33;1748581;81;21141;-66
2021/04/06 05:09:59;;;;;;;12.20;10.05;;;;;;;4.80;62.60;98414.31;1725811;82;21124;-66
2021/04/06 05:12:27;;;;;;;11.70;8.70;;;;;;;4.83;62.40;98407.19;1742624;82;21145;-65
2021/04/06 05:14:56;;;;;;;17.07;10.90;;;;;;;4.89;62.18;98412.59;1768990;80;21197;-66
2021/04/06 05:17:24;;;;;;;16.80;10.78;;;;;;;4.94;62.05;98405.45;1788465;80;23518;-65
2021/04/06 05:19:52;;;;;;;20.70;14.58;;;;;;;4.99;61.85;98406.08;1792807;80;21158;-64
2021/04/06 05:22:20;;;;;;;25.27;15.88;;;;;;;5.02;61.73;98417.56;1793281;80;21129;-66
2021/04/06 05:24:48;;;;;;;23.55;16.27;;;;;;;5.06;61.51;98412.03;1793237;80;21165;-63
2021/04/06 05:27:16;;;;;;;19.82;14.45;;;;;;;5.12;61.42;98409.20;1792875;80;21043;-65
2021/04/06 05:29:44;;;;;;;21.45;14.30;;;;;;;5.14;61.21;98423.06;1791401;80;21537;-67
2021/04/06 05:32:12;;;;;;;22.32;15.13;;;;;;;5.19;61.18;98422.33;1790205;80;22310;-66
2021/04/06 05:34:40;;;;;;;19.42;14.63;;;;;;;5.23;60.94;98421.59;1787663;80;21153;-66
2021/04/06 05:37:07;;;;;;;18.20;13.03;;;;;;;5.29;60.80;98419.80;1786643;80;20987;-65
2021/04/06 05:39:37;;;;;;;17.75;14.05;;;;;;;5.35;60.79;98413.48;1786641;80;21197;-65
2021/04/06 05:42:07;;;;;;;19.73;14.03;;;;;;;5.38;60.67;98411.65;1787912;80;22883;-64
2021/04/06 05:44:34;;;;;;;22.62;16.10;;;;;;;5.45;60.47;98411.48;1790476;80;21640;-66
2021/04/06 05:47:03;;;;;;;27.32;17.20;;;;;;;5.43;60.32;98417.05;1790606;80;21038;-63
2021/04/06 05:49:33;;;;;;;28.00;18.80;;;;;;;5.48;60.20;98414.97;1790557;80;21134;-68
2021/04/06 05:52:00;;;;;;;27.87;19.95;;;;;;;5.50;60.05;98414.21;1789785;80;21215;-65
2021/04/06 05:54:29;;;;;;;27.25;17.60;;;;;;;5.58;60.03;98412.44;1789109;80;21392;-75
2021/04/06 05:56:57;;;;;;;25.72;18.42;;;;;;;5.68;59.62;98416.55;1788558;80;21211;-69
2021/04/06 05:59:25;;;;;;;24.72;15.13;;;;;;;5.76;59.51;98409.44;1738865;81;21140;-65
2021/04/06 06:01:53;;;;;;;31.07;18.20;;;;;;;5.83;59.05;98415.92;1758962;81;21168;-65
2021/04/06 06:04:21;;;;;;;26.68;19.15;;;;;;;5.85;58.95;98411.16;1770587;81;20970;-63
2021/04/06 06:06:49;;;;;;;24.12;17.62;;;;;;;5.90;58.63;98417.91;1759906;81;21221;-64
2021/04/06 06:09:34;;;;;;;24.27;16.80;;;;;;;5.93;58.58;98421.41;1769019;81;20982;-65
2021/04/06 06:12:12;;;;;;;20.05;16.10;;;;;;;5.98;58.44;98410.78;1752215;81;21007;-65
2021/04/06 06:14:45;;;;;;;22.13;15.55;;;;;;;6.05;58.23;98421.52;1741413;81;22071;-65
2021/04/06 06:17:20;;;;;;;21.77;16.20;;;;;;;6.13;57.81;98407.74;1741370;82;21137;-68
2021/04/06 06:19:59;;;;;;;20.48;13.60;;;;;;;6.31;57.46;98413.77;1765967;81;22305;-63
2021/04/06 06:22:31;;;;;;;18.90;15.05;;;;;;;6.31;57.46;98413.77;1765896;81;21183;-64
2021/04/06 06:25:12;;;;;;;18.02;14.28;;;;;;;6.54;57.17;98417.44;1766005;81;21120;-64
2021/04/06 06:27:45;;;;;;;16.52;13.30;;;;;;;6.54;57.17;98417.44;1765998;81;21622;-64
2021/04/06 06:30:31;;;;;;;20.90;14.45;;;;;;;6.67;56.91;98410.84;1752166;81;21607;-65
2021/04/06 06:33:24;;;;;;;19.67;14.03;;;;;;;6.80;56.57;98415.77;1760304;81;21168;-65
2021/04/06 06:35:55;;;;;;;28.45;18.15;;;;;;;6.95;55.86;98412.66;1766249;81;21037;-63
2021/04/06 06:38:33;;;;;;;20.55;13.55;;;;;;;7.09;55.58;98421.05;1766003;81;21093;-65
2021/04/06 06:41:20;;;;;;;21.05;14.75;;;;;;;7.20;54.58;98418.69;1766012;81;21649;-64
2021/04/06 06:43:52;;;;;;;22.98;13.50;;;;;;;7.32;54.20;98414.48;1765981;81;21137;-64
2021/04/06 06:46:29;;;;;;;16.70;10.35;;;;;;;7.45;53.92;98422.03;1767504;81;21370;-64
2021/04/06 06:49:06;;;;;;;18.85;12.28;;;;;;;7.56;53.54;98418.34;1761570;81;21168;-66
2021/04/06 06:51:40;;;;;;;17.67;12.93;;;;;;;7.69;53.37;98423.73;1765954;81;21168;-64
2021/04/06 06:54:08;;;;;;;16.45;11.85;;;;;;;7.84;53.09;98435.84;1765837;81;21097;-65
2021/04/06 06:56:39;;;;;;;13.80;10.85;;;;;;;8.00;52.50;98430.01;1765902;81;21153;-66
2021/04/06 06:59:08;;;;;;;18.77;11.97;;;;;;;8.16;51.74;98428.95;1765881;81;21207;-65
2021/04/06 07:01:38;;;;;;;13.45;10.30;;;;;;;8.24;50.69;98427.12;1765889;81;21608;-65
2021/04/06 07:06:49;;;;;;;15.25;11.12;;;;;;;8.46;50.30;98425.02;1847020;76;27981;-64
2021/04/06 07:09:30;;;;;;;17.27;10.95;;;;;;;8.53;50.06;98439.51;1817191;78;21611;-66
2021/04/06 07:12:03;;;;;;;13.18;9.95;;;;;;;8.64;48.97;98432.52;1817184;78;24990;-66
2021/04/06 07:14:32;;;;;;;13.75;10.18;;;;;;;8.77;49.21;98430.39;1816224;78;21082;-66
2021/04/06 07:17:07;;;;;;;30.15;22.10;;;;;;;8.88;48.51;98429.30;1812300;79;20971;-67
2021/04/06 07:19:41;;;;;;;17.87;12.55;;;;;;;8.96;48.24;98420.73;1786754;78;21023;-68
2021/04/06 07:22:12;;;;;;;20.43;14.05;;;;;;;9.04;47.39;98428.22;1785083;80;20990;-67
2021/04/06 07:24:42;;;;;;;21.25;11.57;;;;;;;9.15;47.83;98425.27;1785081;80;21190;-65
2021/04/06 07:27:13;;;;;;;16.30;12.23;;;;;;;9.27;46.71;98430.31;1786460;79;21097;-64
2021/04/06 07:29:43;;;;;;;16.55;11.60;;;;;;;9.34;46.26;98428.70;1785328;80;21050;-64
2021/04/06 07:32:13;;;;;;;16.48;11.38;;;;;;;9.39;46.61;98428.16;1786726;79;21495;-66
2021/04/06 07:34:43;;;;;;;15.50;12.13;;;;;;;9.48;46.92;98427.85;1817249;79;21137;-65
2021/04/06 07:37:11;;;;;;;17.40;11.43;;;;;;;9.62;46.34;98428.88;1764924;79;21360;-64
2021/04/06 07:39:39;;;;;;;18.15;10.10;;;;;;;9.76;46.45;98434.99;1785182;79;21126;-64
2021/04/06 07:42:08;;;;;;;18.10;10.58;;;;;;;9.92;45.92;98426.60;1784948;80;21092;-66
2021/04/06 07:44:37;;;;;;;14.55;9.93;;;;;;;10.07;45.03;98438.59;1755039;80;21474;-66
2021/04/06 07:47:05;;;;;;;15.13;10.90;;;;;;;10.20;44.10;98430.50;1731336;82;21152;-66
2021/04/06 07:49:38;;;;;;;18.48;12.15;;;;;;;10.24;44.00;98432.89;1699200;83;21358;-68
2021/04/06 07:52:18;;;;;;;12.65;10.30;;;;;;;10.28;43.85;98423.73;1710150;83;21115;-66
2021/04/06 07:54:49;;;;;;;12.43;8.85;;;;;;;10.33;43.99;98428.53;1734739;82;21188;-66
2021/04/06 07:57:16;;;;;;;14.20;9.60;;;;;;;10.39;43.79;98423.93;1739031;81;21129;-67
2021/04/06 07:59:51;;;;;;;12.37;9.48;;;;;;;10.43;43.50;98430.34;1735770;81;21630;-66
2021/04/06 08:02:22;;;;;;;14.70;10.48;;;;;;;10.48;43.38;98429.78;1735553;82;21391;-67
2021/04/06 08:04:56;;;;;;;10.95;7.85;;;;;;;10.53;43.07;98430.28;1735855;81;21255;-67
2021/04/06 08:07:35;;;;;;;35.25;10.38;;;;;;;10.60;42.98;98434.78;1735247;81;21185;-66
2021/04/06 08:10:15;;;;;;;11.88;9.45;;;;;;;10.63;42.97;98435.59;1734794;81;21050;-65
2021/04/06 08:12:45;;;;;;;15.88;10.60;;;;;;;10.67;42.98;98435.82;1734625;82;21570;-67
2021/04/06 08:15:22;;;;;;;16.07;10.53;;;;;;;10.64;43.10;98439.08;1719866;82;21223;-67
2021/04/06 08:17:59;;;;;;;15.78;10.10;;;;;;;10.60;43.32;98443.41;1738080;81;21023;-66
2021/04/06 08:20:42;;;;;;;16.85;9.33;;;;;;;10.58;43.67;98441.00;1735597;82;21065;-67
2021/04/06 08:23:18;;;;;;;15.10;10.03;;;;;;;10.62;43.67;98447.95;1735673;81;21081;-66
2021/04/06 08:25:50;;;;;;;15.80;10.35;;;;;;;10.65;43.41;98447.38;1752870;80;21586;-65
2021/04/06 08:28:28;;;;;;;13.40;8.58;;;;;;;10.70;43.71;98446.00;1734079;82;21204;-66
2021/04/06 08:31:18;;;;;;;13.38;9.75;;;;;;;10.78;43.58;98450.26;1733904;82;21090;-67
2021/04/06 08:33:47;;;;;;;14.15;8.63;;;;;;;10.87;42.99;98459.33;1753324;81;21153;-64
2021/04/06 08:36:24;;;;;;;16.25;9.70;;;;;;;10.91;42.49;98444.77;1753308;81;21594;-65
2021/04/06 08:38:55;;;;;;;11.48;8.75;;;;;;;10.91;42.46;98446.11;1744325;81;21129;-67
2021/04/06 08:41:28;;;;;;;13.05;9.08;;;;;;;10.96;42.23;98447.95;1733995;82;21393;-66
2021/04/06 08:44:00;;;;;;;13.55;9.35;;;;;;;10.94;42.27;98447.69;1736115;81;21138;-67
2021/04/06 08:46:37;;;;;;;;;;;;;;;11.01;42.69;98441.98;1736681;82;21631;-65
2021/04/06 08:49:23;;;;;;;16.42;10.23;;;;;;;11.08;42.75;98458.59;1759037;81;20295;-65
2021/04/06 08:51:59;;;;;;;14.93;10.40;;;;;;;11.13;42.48;98463.12;1763267;81;21193;-67
2021/04/06 08:54:30;;;;;;;17.87;10.88;;;;;;;11.20;41.94;98454.99;1765326;81;21319;-65
2021/04/06 08:57:04;;;;;;;20.97;11.57;;;;;;;11.22;41.69;98458.19;1765977;81;21189;-65
2021/04/06 08:59:39;;;;;;;17.12;12.43;;;;;;;11.24;41.66;98443.91;1762816;81;21552;-65
2021/04/06 09:02:16;;;;;;;13.98;10.72;;;;;;;11.29;41.38;98446.55;1763524;81;21187;-72
2021/04/06 09:04:49;;;;;;;17.32;9.95;;;;;;;11.32;41.31;98449.20;1745953;80;21579;-67
2021/04/06 09:07:28;;;;;;;11.38;8.63;;;;;;;11.41;41.06;98450.22;1734098;81;21367;-64
2021/04/06 09:10:09;;;;;;;12.07;8.88;;;;;;;11.50;40.47;98443.12;1746048;81;21120;-68
2021/04/06 09:12:43;;;;;;;14.35;10.00;;;;;;;11.61;40.09;98440.55;1766113;81;21036;-66
2021/04/06 09:15:13;;;;;;;11.53;7.62;;;;;;;11.74;39.97;98448.53;1766032;81;21542;-68
2021/04/06 09:17:41;;;;;;;10.00;7.53;;;;;;;11.86;38.67;98446.75;1765721;81;21105;-66
2021/04/06 09:20:17;;;;;;;13.85;9.13;;;;;;;11.86;38.09;98439.48;1765915;81;21202;-67
2021/04/06 09:22:47;;;;;;;9.10;7.95;;;;;;;11.87;37.61;98455.91;1765813;81;21029;-66
2021/04/06 09:25:25;;;;;;;12.88;7.95;;;;;;;11.95;37.84;98423.46;1765782;81;21153;-65
2021/04/06 09:28:00;;;;;;;18.07;7.37;;;;;;;12.07;37.88;98421.97;1765603;81;21144;-66
2021/04/06 09:30:32;;;;;;;9.33;6.17;;;;;;;12.23;37.89;98426.03;1766182;81;21160;-65
2021/04/06 09:33:05;;;;;;;9.10;7.85;;;;;;;12.34;36.96;98425.89;1765880;81;22139;-69
2021/04/06 09:35:33;;;;;;;11.70;6.87;;;;;;;12.38;36.66;98416.92;1765888;81;21146;-67
2021/04/06 09:38:02;;;;;;;8.35;6.53;;;;;;;12.44;35.53;98429.24;1765703;81;21167;-67
2021/04/06 09:40:38;;;;;;;7.03;6.33;;;;;;;12.50;35.84;98419.99;1765939;81;21597;-67
2021/04/06 09:43:06;;;;;;;11.10;8.15;;;;;;;12.63;35.73;98437.31;1766042;81;21542;-70
2021/04/06 09:45:35;;;;;;;13.62;7.22;;;;;;;12.71;34.33;98420.45;1740356;81;21374;-67
2021/04/06 09:48:04;;;;;;;8.63;6.60;;;;;;;12.78;34.51;98417.39;1765732;81;21120;-65
2021/04/06 09:50:32;;;;;;;11.78;7.25;;;;;;;12.83;34.69;98418.66;1765930;81;21124;-67
2021/04/06 09:53:00;;;;;;;8.23;6.90;;;;;;;12.84;34.93;98422.42;1765850;81;21210;-65
2021/04/06 09:55:30;;;;;;;11.57;7.85;;;;;;;12.88;35.06;98415.87;1765861;81;21168;-67
2021/04/06 09:58:00;;;;;;;9.88;7.92;;;;;;;12.96;34.93;98417.34;1765921;81;21194;-66
2021/04/06 10:00:33;;;;;;;9.85;5.58;;;;;;;13.10;34.96;98417.36;1765902;81;21188;-66
2021/04/06 10:03:07;;;;;;;16.57;7.87;;;;;;;13.17;34.09;98428.63;1766175;81;21309;-66
2021/04/06 10:05:38;;;;;;;9.70;7.47;;;;;;;13.17;34.84;98434.56;1764992;81;21176;-67
2021/04/06 10:08:09;;;;;;;8.40;6.72;;;;;;;13.14;34.73;98431.89;1727603;82;21162;-70
2021/04/06 10:10:37;;;;;;;7.28;6.40;;;;;;;13.20;34.25;98405.61;1759524;81;21377;-66
2021/04/06 10:13:05;;;;;;;12.40;6.70;;;;;;;13.24;34.46;98399.31;1712909;83;21629;-67
2021/04/06 10:15:33;;;;;;;9.30;6.53;;;;;;;13.31;34.26;98405.69;1749624;81;21116;-67
2021/04/06 10:18:09;;;;;;;10.23;7.15;;;;;;;13.32;34.04;98400.55;1686395;82;21074;-64
2021/04/06 10:20:42;;;;;;;10.55;8.05;;;;;;;13.32;33.99;98416.20;1714022;82;21185;-65
2021/04/06 10:23:11;;;;;;;10.28;7.28;;;;;;;13.40;33.85;98411.45;1738355;82;21371;-65
2021/04/06 10:25:43;;;;;;;10.82;6.67;;;;;;;13.51;33.69;98414.75;1736479;82;21193;-65
2021/04/06 10:28:24;;;;;;;8.98;6.10;;;;;;;13.65;33.55;98402.05;1760362;80;21579;-65
2021/04/06 10:30:59;;;;;;;10.95;6.05;;;;;;;13.78;33.42;98397.72;1731961;81;21575;-64
2021/04/06 10:33:34;;;;;;;8.30;6.25;;;;;;;13.87;33.12;98395.91;1734567;82;21148;-64
2021/04/06 10:36:09;;;;;;;8.40;6.30;;;;;;;13.90;33.33;98398.02;1745210;81;21384;-62
2021/04/06 10:38:39;;;;;;;9.03;6.00;;;;;;;13.93;33.18;98399.56;1749996;81;21123;-64
2021/04/06 10:41:11;;;;;;;7.20;6.20;;;;;;;13.97;33.31;98391.09;1767320;80;21618;-65
2021/04/06 10:43:45;;;;;;;6.45;5.62;;;;;;;13.97;33.02;98384.33;1761694;81;21026;-63
2021/04/06 10:46:19;;;;;;;9.60;7.22;;;;;;;14.02;32.81;98380.72;1741064;82;21171;-65
2021/04/06 10:48:50;;;;;;;8.50;6.20;;;;;;;14.06;32.97;98379.55;1763831;81;22260;-63
2021/04/06 10:51:24;;;;;;;12.07;7.35;;;;;;;14.11;32.61;98376.73;1763712;81;21178;-64
2021/04/06 10:54:01;;;;;;;9.00;6.10;;;;;;;14.25;32.51;98377.48;1762934;80;21167;-65
2021/04/06 10:56:31;;;;;;;9.63;6.83;;;;;;;14.34;32.26;98372.39;1763083;80;21178;-66
2021/04/06 10:59:04;;;;;;;7.62;6.00;;;;;;;14.39;32.30;98366.90;1763136;81;21149;-64
2021/04/06 11:01:45;;;;;;;;;;;;;;;14.33;32.05;98372.72;1760354;81;21205;-65
2021/04/06 11:04:18;;;;;;;7.25;6.47;;;;;;;14.38;32.02;98373.98;1763654;80;20344;-74
2021/04/06 11:06:59;;;;;;;11.80;6.35;;;;;;;14.44;31.89;98374.64;1764406;80;21148;-64
2021/04/06 11:09:40;;;;;;;6.53;5.58;;;;;;;14.36;31.79;98373.48;1765287;81;21555;-67
2021/04/06 11:12:11;;;;;;;9.15;6.50;;;;;;;14.21;31.49;98362.98;1765395;81;21531;-66
2021/04/06 11:14:40;;;;;;;6.90;5.87;;;;;;;14.15;31.91;98362.30;1763113;81;21225;-64
2021/04/06 11:17:08;;;;;;;14.20;6.58;;;;;;;14.19;32.19;98362.50;1748918;81;22217;-65
2021/04/06 11:19:44;;;;;;;11.33;6.58;;;;;;;14.25;32.31;98363.97;1747509;79;21002;-64
2021/04/06 11:22:17;;;;;;;9.80;6.15;;;;;;;14.31;31.79;98366.81;1731400;82;21073;-62
2021/04/06 11:24:50;;;;;;;7.45;6.25;;;;;;;14.39;31.29;98357.98;1731524;82;21132;-63
2021/04/06 11:27:18;;;;;;;17.62;7.42;;;;;;;14.38;31.22;98358.56;1749553;81;21419;-65
2021/04/06 11:29:47;;;;;;;9.85;6.35;;;;;;;14.36;31.50;98353.20;1734534;82;21066;-65
2021/04/06 11:32:21;;;;;;;10.60;7.17;;;;;;;14.36;31.18;98354.00;1735918;81;21026;-64
2021/04/06 11:34:49;;;;;;;11.73;6.55;;;;;;;14.36;31.35;98346.44;1765404;81;22253;-65
2021/04/06 11:37:17;;;;;;;8.68;7.35;;;;;;;14.36;31.35;98346.44;1745067;81;21597;-66
2021/04/06 11:39:46;;;;;;;10.40;6.08;;;;;;;14.34;31.23;98339.14;1747246;81;21194;-66
2021/04/06 11:42:15;;;;;;;9.43;6.22;;;;;;;14.35;31.38;98342.90;1756356;81;21018;-67
2021/04/06 11:44:44;;;;;;;7.35;6.62;;;;;;;14.41;31.73;98331.44;1765398;81;21562;-66
2021/04/06 11:47:12;;;;;;;11.25;6.92;;;;;;;14.57;31.85;98331.87;1765072;80;21192;-65
2021/04/06 11:49:40;;;;;;;6.03;5.35;;;;;;;14.63;31.49;98332.77;1755464;81;21161;-65
2021/04/06 11:52:08;;;;;;;7.03;5.60;;;;;;;14.66;31.05;98348.41;1734576;82;21206;-67
2021/04/06 11:54:37;;;;;;;8.78;6.95;;;;;;;14.54;30.86;98341.94;1741258;81;21630;-64
2021/04/06 11:57:06;;;;;;;6.20;5.60;;;;;;;14.40;31.21;98344.71;1764161;81;21134;-68
2021/04/06 11:59:34;;;;;;;12.10;6.80;;;;;;;14.36;31.17;98330.20;1739213;82;21686;-65